createdAt,value
2023-11-10T00:01:24.424Z,158265.03
2023-11-10T00:04:03.066Z,158259.69
2023-11-10T00:06:31.230Z,158258.38
2023-11-10T00:08:59.030Z,158263.72
2023-11-10T00:11:28.039Z,158259.69
2023-11-10T00:14:07.669Z,158253.03
2023-11-10T00:16:44.252Z,158251.72
2023-11-10T00:19:11.388Z,158255.72
2023-11-10T00:21:38.832Z,158246.38
2023-11-10T00:24:06.638Z,158267.66
2023-11-10T00:26:36.143Z,158250.41
2023-11-10T00:29:03.636Z,158254.34
2023-11-10T00:31:31.460Z,158251.72
2023-11-10T00:33:58.925Z,158242.41
2023-11-10T00:36:26.640Z,158250.41
2023-11-10T00:38:54.108Z,158262.38
2023-11-10T00:41:21.570Z,158249.06
2023-11-10T00:43:51.172Z,158251.72
2023-11-10T00:46:18.659Z,158267.66
2023-11-10T00:48:46.261Z,158285.00
2023-11-10T00:51:13.800Z,158298.31
2023-11-10T00:53:43.099Z,158299.63
2023-11-10T00:56:10.598Z,158296.94
2023-11-10T00:58:37.953Z,158330.22
2023-11-10T01:01:05.540Z,158326.25
2023-11-10T01:03:33.224Z,158340.91
2023-11-10T01:06:00.816Z,158359.50
2023-11-10T01:08:28.068Z,158371.50
2023-11-10T01:10:55.707Z,158379.47
2023-11-10T01:13:22.944Z,158386.13
2023-11-10T01:15:50.669Z,158364.84
2023-11-10T01:18:18.044Z,158386.13
2023-11-10T01:20:46.138Z,158388.81
2023-11-10T01:23:13.409Z,158390.16
2023-11-10T01:25:40.972Z,158383.50
2023-11-10T01:28:08.391Z,158379.47
2023-11-10T01:30:36.155Z,158387.44
2023-11-10T01:33:04.189Z,158374.13
2023-11-10T01:35:31.928Z,158371.50
2023-11-10T01:38:00.948Z,158364.84
2023-11-10T01:40:32.676Z,158354.22
2023-11-10T01:43:00.090Z,158363.50
2023-11-10T01:45:28.086Z,158372.81
2023-11-10T01:47:55.310Z,158352.84
2023-11-10T01:50:22.884Z,158350.19
2023-11-10T01:52:50.177Z,158350.19
2023-11-10T01:55:18.538Z,158340.91
2023-11-10T01:57:48.158Z,158334.25
2023-11-10T02:00:17.923Z,158343.53
2023-11-10T02:02:45.952Z,158347.56
2023-11-10T02:05:13.567Z,158344.84
2023-11-10T02:07:41.882Z,158340.91
2023-11-10T02:10:11.010Z,158334.25
2023-11-10T02:12:38.586Z,158338.19
2023-11-10T02:15:08.235Z,158347.56
2023-11-10T02:17:35.699Z,158348.88
2023-11-10T02:20:03.921Z,158340.91
2023-11-10T02:22:31.235Z,158346.19
2023-11-10T02:24:59.381Z,158352.84
2023-11-10T02:27:27.420Z,158358.19
2023-11-10T02:29:54.897Z,158370.16
2023-11-10T02:32:22.194Z,158354.22
2023-11-10T02:34:52.519Z,158356.84
2023-11-10T02:37:20.186Z,158355.53
2023-11-10T02:39:47.828Z,158355.53
2023-11-10T02:42:15.232Z,158358.19
2023-11-10T02:44:42.713Z,158368.84
2023-11-10T02:47:10.383Z,158339.53
2023-11-10T02:49:38.928Z,158348.88
2023-11-10T02:52:07.208Z,158352.84
2023-11-10T02:54:34.963Z,158376.81
2023-11-10T02:57:02.252Z,158368.84
2023-11-10T02:59:29.731Z,158368.84
2023-11-10T03:01:57.278Z,158372.81
2023-11-10T03:04:25.308Z,158366.16
2023-11-10T03:06:52.735Z,158368.84
2023-11-10T03:09:20.490Z,158367.47
2023-11-10T03:11:47.956Z,158360.88
2023-11-10T03:14:15.761Z,158367.47
2023-11-10T03:16:43.328Z,158370.16
2023-11-10T03:19:11.001Z,158371.50
2023-11-10T03:21:38.704Z,158375.50
2023-11-10T03:24:07.233Z,158376.81
2023-11-10T03:26:34.597Z,158371.50
2023-11-10T03:29:04.310Z,158378.16
2023-11-10T03:31:32.465Z,158380.78
2023-11-10T03:34:01.123Z,158376.81
2023-11-10T03:36:29.249Z,158364.84
2023-11-10T03:38:58.179Z,158375.50
2023-11-10T03:41:26.405Z,158367.47
2023-11-10T03:43:54.159Z,158370.16
2023-11-10T03:46:21.491Z,158362.19
2023-11-10T03:48:49.226Z,158372.81
2023-11-10T03:51:16.863Z,158366.16
2023-11-10T03:53:46.513Z,158366.16
2023-11-10T03:56:14.235Z,158362.19
2023-11-10T03:58:42.512Z,158355.53
2023-11-10T04:01:13.219Z,158347.56
2023-11-10T04:03:42.694Z,158371.50
2023-11-10T04:06:10.437Z,158367.47
2023-11-10T04:08:38.362Z,158366.16
2023-11-10T04:11:05.695Z,158360.88
2023-11-10T04:13:34.515Z,158371.50
2023-11-10T04:16:02.128Z,158372.81
2023-11-10T04:18:30.177Z,158359.50
2023-11-10T04:20:57.498Z,158356.84
2023-11-10T04:23:26.445Z,158351.50
2023-11-10T04:25:54.290Z,158359.50
2023-11-10T04:28:22.025Z,158364.84
2023-11-10T04:30:49.562Z,158378.16
2023-11-10T04:33:17.241Z,158368.84
2023-11-10T04:35:44.725Z,158370.16
2023-11-10T04:38:12.663Z,158375.50
2023-11-10T04:40:40.093Z,158376.81
2023-11-10T04:43:07.883Z,158371.50
2023-11-10T04:45:35.388Z,158358.19
2023-11-10T04:48:03.401Z,158374.13
2023-11-10T04:50:30.823Z,158374.13
2023-11-10T04:52:58.529Z,158364.84
2023-11-10T04:55:26.122Z,158348.88
2023-11-10T04:57:53.948Z,158372.81
2023-11-10T05:00:24.822Z,158368.84
2023-11-10T05:02:54.714Z,158359.50
2023-11-10T05:05:23.001Z,158368.84
2023-11-10T05:07:51.832Z,158371.50
2023-11-10T05:10:19.652Z,158374.13
2023-11-10T05:12:47.402Z,158376.81
2023-11-10T05:15:16.652Z,158366.16
2023-11-10T05:17:45.056Z,158364.84
2023-11-10T05:20:13.147Z,158360.88
2023-11-10T05:22:46.952Z,158362.19
2023-11-10T05:25:14.181Z,158370.16
2023-11-10T05:27:41.916Z,158375.50
2023-11-10T05:30:13.293Z,158370.16
2023-11-10T05:32:41.480Z,158363.50
2023-11-10T05:35:10.251Z,158371.50
2023-11-10T05:37:37.845Z,158347.56
2023-11-10T05:40:07.402Z,158374.13
2023-11-10T05:42:34.862Z,158372.81
2023-11-10T05:45:02.373Z,158370.16
2023-11-10T05:47:30.098Z,158378.16
2023-11-10T05:49:57.424Z,158372.81
2023-11-10T05:52:25.423Z,158386.13
2023-11-10T05:54:52.709Z,158396.81
2023-11-10T05:57:21.098Z,158382.16
2023-11-10T05:59:48.754Z,158395.44
2023-11-10T06:02:18.990Z,158394.13
2023-11-10T06:04:46.677Z,158398.13
2023-11-10T06:07:14.439Z,158395.44
2023-11-10T06:09:41.907Z,158415.41
2023-11-10T06:12:09.701Z,158414.09
2023-11-10T06:14:37.191Z,158428.72
2023-11-10T06:17:05.079Z,158422.06
2023-11-10T06:19:32.580Z,158443.38
2023-11-10T06:22:00.426Z,158452.72
2023-11-10T06:24:29.728Z,158448.72
2023-11-10T06:26:57.634Z,158470.00
2023-11-10T06:29:25.314Z,158475.34
2023-11-10T06:31:54.934Z,158483.31
2023-11-10T06:34:24.204Z,158483.31
2023-11-10T06:36:52.219Z,158496.66
2023-11-10T06:39:19.662Z,158483.31
2023-11-10T06:41:47.608Z,158500.63
2023-11-10T06:44:20.217Z,158513.94
2023-11-10T06:46:48.817Z,158512.63
2023-11-10T06:49:16.473Z,158515.31
2023-11-10T06:51:44.781Z,158513.94
2023-11-10T06:54:12.453Z,158529.94
2023-11-10T06:56:40.331Z,158532.59
2023-11-10T06:59:08.021Z,158549.88
2023-11-10T07:01:36.841Z,158536.63
2023-11-10T07:04:04.773Z,158561.88
2023-11-10T07:06:33.648Z,158568.56
2023-11-10T07:09:01.041Z,158563.22
2023-11-10T07:11:28.859Z,158573.88
2023-11-10T07:13:56.997Z,158580.56
2023-11-10T07:16:27.956Z,158585.88
2023-11-10T07:18:55.383Z,158596.50
2023-11-10T07:21:23.680Z,158599.16
2023-11-10T07:23:51.256Z,158601.84
2023-11-10T07:26:20.497Z,158611.16
2023-11-10T07:28:48.280Z,158613.84
2023-11-10T07:31:16.159Z,158635.19
2023-11-10T07:33:43.548Z,158639.13
2023-11-10T07:36:12.431Z,158651.16
2023-11-10T07:38:41.089Z,158659.13
2023-11-10T07:41:09.142Z,158683.09
2023-11-10T07:43:37.096Z,158681.75
2023-11-10T07:46:06.293Z,158676.44
2023-11-10T07:48:34.593Z,158709.75
2023-11-10T07:51:03.535Z,158685.78
2023-11-10T07:53:31.655Z,158709.75
2023-11-10T07:56:00.467Z,158716.41
2023-11-10T07:58:29.733Z,158724.41
2023-11-10T08:00:58.675Z,158725.72
2023-11-10T08:03:27.513Z,158739.03
2023-11-10T08:05:56.598Z,158752.38
2023-11-10T08:08:23.927Z,158752.38
2023-11-10T08:10:51.415Z,158763.06
2023-11-10T08:13:18.952Z,158771.06
2023-11-10T08:15:47.439Z,158775.03
2023-11-10T08:18:15.870Z,158773.69
2023-11-10T08:20:44.047Z,158773.69
2023-11-10T08:23:12.164Z,158740.41
2023-11-10T08:25:39.733Z,158776.41
2023-11-10T08:28:08.762Z,158781.75
2023-11-10T08:30:37.396Z,158808.41
2023-11-10T08:33:05.233Z,158808.41
2023-11-10T08:35:32.886Z,158800.41
2023-11-10T08:38:00.174Z,158797.75
2023-11-10T08:40:27.865Z,158832.41
2023-11-10T08:42:55.224Z,158844.38
2023-11-10T08:45:25.512Z,158880.38
2023-11-10T08:47:53.142Z,158915.03
2023-11-10T08:50:20.592Z,158965.72
2023-11-10T08:52:48.989Z,159005.69
2023-11-10T08:55:22.223Z,159031.06
2023-11-10T08:57:50.798Z,159072.41
2023-11-10T09:00:19.166Z,159064.41
2023-11-10T09:02:46.790Z,159112.38
2023-11-10T09:05:15.623Z,159164.44
2023-11-10T09:07:43.271Z,159188.41
2023-11-10T09:10:14.008Z,159199.13
2023-11-10T09:12:42.787Z,159244.44
2023-11-10T09:17:56.612Z,159388.66
2023-11-10T09:20:24.434Z,159424.69
2023-11-10T09:22:51.978Z,159412.66
2023-11-10T09:25:21.989Z,159412.66
2023-11-10T09:27:49.686Z,159340.59
2023-11-10T09:30:17.392Z,159325.91
2023-11-10T09:32:44.711Z,159313.91
2023-11-10T09:35:15.378Z,159280.53
2023-11-10T09:37:44.037Z,159319.25
2023-11-10T09:40:13.066Z,159341.94
2023-11-10T09:42:43.882Z,159367.31
2023-11-10T09:45:14.298Z,159377.94
2023-11-10T09:47:42.023Z,159389.97
2023-11-10T09:50:19.531Z,159420.66
2023-11-10T09:52:50.363Z,159451.34
2023-11-10T09:55:18.245Z,159418.00
2023-11-10T09:57:45.925Z,159418.00
2023-11-10T10:00:14.694Z,159414.00
2023-11-10T10:02:43.106Z,159447.38
2023-11-10T10:05:10.814Z,159462.06
2023-11-10T10:07:40.300Z,159444.72
2023-11-10T10:10:10.710Z,159478.06
2023-11-10T10:12:39.400Z,159512.78
2023-11-10T10:15:07.808Z,159523.50
2023-11-10T10:17:38.862Z,159554.19
2023-11-10T10:20:17.306Z,159582.22
2023-11-10T10:22:46.324Z,159608.94
2023-11-10T10:25:18.583Z,159627.66
2023-11-10T10:27:48.163Z,159645.00
2023-11-10T10:30:16.742Z,159654.34
2023-11-10T10:32:44.308Z,159658.34
2023-11-10T10:35:13.346Z,159679.72
2023-11-10T10:37:41.719Z,159674.38
2023-11-10T10:40:10.938Z,159659.69
2023-11-10T10:42:43.018Z,159646.31
2023-11-10T10:45:14.019Z,159595.59
2023-11-10T10:47:42.563Z,159590.22
2023-11-10T10:50:11.871Z,159576.88
2023-11-10T10:52:39.934Z,159599.63
2023-11-10T10:55:08.631Z,159560.84
2023-11-10T10:57:39.254Z,159600.94
2023-11-10T11:00:07.558Z,159595.59
2023-11-10T11:02:37.225Z,159634.28
2023-11-10T11:05:23.903Z,159662.34
2023-11-10T11:08:16.440Z,159651.69
2023-11-10T11:11:03.036Z,159675.69
2023-11-10T11:14:07.863Z,159699.81
2023-11-10T11:16:54.047Z,159706.50
2023-11-10T11:19:26.638Z,159715.84
2023-11-10T11:21:54.536Z,159730.53
2023-11-10T11:24:25.673Z,159734.56
2023-11-10T11:27:04.293Z,159739.88
2023-11-10T11:29:39.088Z,159735.88
2023-11-10T11:32:11.161Z,159714.50
2023-11-10T11:34:38.793Z,159706.50
2023-11-10T11:37:07.572Z,159738.53
2023-11-10T11:39:35.176Z,159751.91
2023-11-10T11:42:09.229Z,159779.97
2023-11-10T11:44:37.775Z,159790.69
2023-11-10T11:47:11.632Z,159809.34
2023-11-10T11:49:40.715Z,159777.31
2023-11-10T11:52:10.234Z,159793.34
2023-11-10T11:54:37.735Z,159759.91
2023-11-10T11:57:05.711Z,159781.28
2023-11-10T11:59:33.313Z,159781.28
2023-11-10T12:02:01.269Z,159786.66
2023-11-10T12:04:30.022Z,159766.59
2023-11-10T12:06:58.002Z,159759.91
2023-11-10T12:09:26.802Z,159741.25
2023-11-10T12:11:54.643Z,159755.94
2023-11-10T12:14:24.269Z,159782.63
2023-11-10T12:16:52.431Z,159771.94
2023-11-10T12:19:21.347Z,159812.06
2023-11-10T12:21:49.825Z,159817.38
2023-11-10T12:24:21.094Z,159789.31
2023-11-10T12:26:55.039Z,159763.94
2023-11-10T12:29:29.661Z,159785.31
2023-11-10T12:31:58.650Z,159776.00
2023-11-10T12:34:29.207Z,159762.63
2023-11-10T12:36:57.192Z,159739.88
2023-11-10T12:39:24.663Z,159733.19
2023-11-10T12:41:52.749Z,159709.16
2023-11-10T12:44:24.452Z,159703.81
2023-11-10T12:47:00.251Z,159698.50
2023-11-10T12:49:32.474Z,159686.47
2023-11-10T12:52:10.722Z,159675.69
2023-11-10T12:54:46.205Z,159667.69
2023-11-10T12:57:15.292Z,159679.72
2023-11-10T12:59:43.880Z,159622.31
2023-11-10T13:02:13.667Z,159640.97
2023-11-10T13:04:42.166Z,159630.31
2023-11-10T13:07:09.813Z,159622.31
2023-11-10T13:09:37.019Z,159618.28
2023-11-10T13:12:04.988Z,159615.63
2023-11-10T13:14:32.354Z,159590.22
2023-11-10T13:17:00.175Z,159580.91
2023-11-10T13:19:27.745Z,159607.63
2023-11-10T13:21:55.874Z,159608.94
2023-11-10T13:24:23.323Z,159600.94
2023-11-10T13:26:51.196Z,159586.25
2023-11-10T13:29:19.069Z,159576.88
2023-11-10T13:31:47.557Z,159555.50
2023-11-10T13:34:19.748Z,159562.19
2023-11-10T13:36:48.767Z,159551.53
2023-11-10T13:39:16.100Z,159548.81
2023-11-10T13:41:48.779Z,159543.53
2023-11-10T13:44:17.720Z,159546.19
2023-11-10T13:46:45.551Z,159524.81
2023-11-10T13:49:13.497Z,159543.53
2023-11-10T13:51:42.712Z,159526.13
2023-11-10T13:54:10.643Z,159524.81
2023-11-10T13:56:40.699Z,159502.13
2023-11-10T13:59:08.425Z,159498.09
2023-11-10T14:01:36.502Z,159491.41
2023-11-10T14:04:04.364Z,159495.44
2023-11-10T14:06:32.291Z,159480.75
2023-11-10T14:08:59.669Z,159471.38
2023-11-10T14:11:27.431Z,159452.72
2023-11-10T14:13:57.196Z,159443.34
2023-11-10T14:16:25.091Z,159443.34
2023-11-10T14:18:52.724Z,159426.00
2023-11-10T14:21:23.364Z,159424.69
2023-11-10T14:23:50.985Z,159430.00
2023-11-10T14:26:18.571Z,159410.00
2023-11-10T14:28:46.052Z,159411.34
2023-11-10T14:31:14.892Z,159401.97
2023-11-10T14:33:42.393Z,159403.34
2023-11-10T14:36:12.613Z,159407.31
2023-11-10T14:38:46.597Z,159395.34
2023-11-10T14:41:18.244Z,159397.97
2023-11-10T14:43:52.436Z,159388.66
2023-11-10T14:46:21.570Z,159383.31
2023-11-10T14:48:50.908Z,159364.59
2023-11-10T14:51:31.572Z,159347.28
2023-11-10T14:53:58.944Z,159331.22
2023-11-10T14:56:26.630Z,159303.19
2023-11-10T14:58:54.052Z,159307.22
2023-11-10T15:01:22.559Z,159285.88
2023-11-10T15:03:50.807Z,159269.81
2023-11-10T15:06:21.249Z,159253.78
2023-11-10T15:08:49.085Z,159252.44
2023-11-10T15:11:16.974Z,159236.47
2023-11-10T15:13:44.291Z,159233.81
2023-11-10T15:16:12.295Z,159236.47
2023-11-10T15:18:40.290Z,159205.78
2023-11-10T15:21:08.168Z,159219.13
2023-11-10T15:23:36.626Z,159205.78
2023-11-10T15:26:04.712Z,159197.78
2023-11-10T15:28:36.412Z,159204.41
2023-11-10T15:31:07.445Z,159187.09
2023-11-10T15:33:36.131Z,159195.09
2023-11-10T15:36:06.019Z,159184.44
2023-11-10T15:38:33.490Z,159172.41
2023-11-10T15:41:01.496Z,159152.41
2023-11-10T15:43:29.313Z,159161.72
2023-11-10T15:45:58.961Z,159149.75
2023-11-10T15:48:36.950Z,159141.75
2023-11-10T15:51:08.361Z,159133.72
2023-11-10T15:53:35.871Z,159132.38
2023-11-10T15:56:03.492Z,159131.06
2023-11-10T15:58:30.728Z,159123.06
2023-11-10T16:00:58.499Z,159113.75
2023-11-10T16:03:26.380Z,159109.72
2023-11-10T16:05:56.250Z,159101.72
2023-11-10T16:08:23.784Z,159083.03
2023-11-10T16:10:51.530Z,159069.69
2023-11-10T16:13:18.935Z,159067.03
2023-11-10T16:15:46.797Z,159057.72
2023-11-10T16:18:14.954Z,159044.38
2023-11-10T16:20:42.758Z,159055.03
2023-11-10T16:23:10.213Z,159040.38
2023-11-10T16:25:37.699Z,159035.03
2023-11-10T16:28:06.313Z,159033.69
2023-11-10T16:30:33.973Z,159027.03
2023-11-10T16:33:01.366Z,159024.38
2023-11-10T16:35:29.753Z,159023.06
2023-11-10T16:37:57.069Z,158965.72
2023-11-10T16:40:24.455Z,158981.72
2023-11-10T16:42:52.236Z,158985.69
2023-11-10T16:45:20.010Z,158975.03
2023-11-10T16:47:49.442Z,158971.03
2023-11-10T16:50:17.364Z,158969.69
2023-11-10T16:52:45.188Z,158959.06
2023-11-10T16:55:12.710Z,158965.72
2023-11-10T16:57:40.119Z,158957.69
2023-11-10T17:00:14.733Z,158963.03
2023-11-10T17:02:46.049Z,158961.72
2023-11-10T17:05:20.715Z,158964.34
2023-11-10T17:07:48.306Z,158951.00
2023-11-10T17:10:16.882Z,158916.41
2023-11-10T17:12:44.543Z,158941.69
2023-11-10T17:15:13.161Z,158936.34
2023-11-10T17:17:40.510Z,158941.69
2023-11-10T17:20:10.517Z,158936.34
2023-11-10T17:22:39.371Z,158913.69
2023-11-10T17:25:07.433Z,158923.00
2023-11-10T17:27:35.717Z,158933.72
2023-11-10T17:30:03.437Z,158920.38
2023-11-10T17:32:30.679Z,158917.72
2023-11-10T17:34:58.392Z,158923.00
2023-11-10T17:37:25.587Z,158913.69
2023-11-10T17:39:54.293Z,158921.69
2023-11-10T17:42:24.434Z,158916.41
2023-11-10T17:44:52.202Z,158925.72
2023-11-10T17:47:19.649Z,158919.03
2023-11-10T17:49:47.788Z,158907.03
2023-11-10T17:52:15.394Z,158915.03
2023-11-10T17:54:43.137Z,158916.41
2023-11-10T17:57:10.858Z,158920.38
2023-11-10T17:59:38.552Z,158919.03
2023-11-10T18:02:07.322Z,158904.38
2023-11-10T18:04:37.199Z,158921.69
2023-11-10T18:07:09.766Z,158935.03
2023-11-10T18:09:37.419Z,158932.38
2023-11-10T18:12:05.282Z,158920.38
2023-11-10T18:14:33.592Z,158908.34
2023-11-10T18:17:00.752Z,158929.69
2023-11-10T18:19:29.219Z,158920.38
2023-11-10T18:21:58.463Z,158929.69
2023-11-10T18:24:25.944Z,158905.72
2023-11-10T18:26:53.240Z,158917.72
2023-11-10T18:29:21.274Z,158923.00
2023-11-10T18:31:48.686Z,158885.72
2023-11-10T18:34:16.434Z,158907.03
2023-11-10T18:36:43.849Z,158907.03
2023-11-10T18:39:11.651Z,158916.41
2023-11-10T18:41:39.096Z,158919.03
2023-11-10T18:44:06.902Z,158919.03
2023-11-10T18:46:35.197Z,158895.03
2023-11-10T18:49:03.456Z,158904.38
2023-11-10T18:51:34.049Z,158904.38
2023-11-10T18:54:01.527Z,158893.69
2023-11-10T18:56:29.332Z,158909.72
2023-11-10T18:58:57.167Z,158903.06
2023-11-10T19:01:24.834Z,158904.38
2023-11-10T19:03:54.500Z,158900.38
2023-11-10T19:06:22.299Z,158893.69
2023-11-10T19:08:49.823Z,158913.69
2023-11-10T19:11:18.409Z,158885.72
2023-11-10T19:13:47.931Z,158904.38
2023-11-10T19:16:16.861Z,158905.72
2023-11-10T19:18:44.774Z,158899.03
2023-11-10T19:21:12.600Z,158907.03
2023-11-10T19:23:40.496Z,158901.69
2023-11-10T19:26:08.839Z,158912.38
2023-11-10T19:28:36.380Z,158900.38
2023-11-10T19:31:04.735Z,158895.03
2023-11-10T19:33:32.887Z,158880.38
2023-11-10T19:36:00.895Z,158889.72
2023-11-10T19:38:29.179Z,158873.69
2023-11-10T19:40:58.413Z,158873.69
2023-11-10T19:43:26.968Z,158871.06
2023-11-10T19:45:54.899Z,158880.38
2023-11-10T19:48:23.455Z,158877.72
2023-11-10T19:50:51.081Z,158885.72
2023-11-10T19:53:20.593Z,158871.06
2023-11-10T19:55:50.504Z,158884.38
2023-11-10T20:03:21.462Z,158880.38
2023-11-10T20:05:49.958Z,158896.41
2023-11-10T20:08:17.919Z,158879.03
2023-11-10T20:10:46.325Z,158893.69
2023-11-10T20:13:14.759Z,158873.69
2023-11-10T20:15:42.501Z,158877.72
2023-11-10T20:18:11.125Z,158864.38
2023-11-10T20:20:41.903Z,158872.38
2023-11-10T20:23:10.297Z,158845.69
2023-11-10T20:25:40.150Z,158837.72
2023-11-10T20:28:09.045Z,158851.03
2023-11-10T20:30:40.149Z,158852.38
2023-11-10T20:33:08.709Z,158831.03
2023-11-10T20:35:36.667Z,158831.03
2023-11-10T20:38:04.921Z,158825.75
2023-11-10T20:40:32.658Z,158829.72
2023-11-10T20:43:00.960Z,158829.72
2023-11-10T20:45:28.750Z,158823.06
2023-11-10T20:47:56.755Z,158824.38
2023-11-10T20:50:24.643Z,158812.41
2023-11-10T20:52:52.494Z,158832.41
2023-11-10T20:55:20.815Z,158829.72
2023-11-10T20:57:48.838Z,158815.06
2023-11-10T21:00:20.195Z,158821.72
2023-11-10T21:02:50.025Z,158832.41
2023-11-10T21:05:18.316Z,158819.09
2023-11-10T21:07:46.326Z,158836.38
2023-11-10T21:10:14.228Z,158835.06
2023-11-10T21:12:42.863Z,158828.41
2023-11-10T21:15:12.446Z,158824.38
2023-11-10T21:17:40.530Z,158819.09
2023-11-10T21:20:11.302Z,158817.75
2023-11-10T21:22:39.786Z,158823.06
2023-11-10T21:25:07.665Z,158824.38
2023-11-10T21:27:37.794Z,158812.41
2023-11-10T21:30:07.579Z,158780.41
2023-11-10T21:32:37.696Z,158776.41
2023-11-10T21:35:06.858Z,158765.72
2023-11-10T21:37:35.409Z,158744.38
2023-11-10T21:40:03.440Z,158740.41
2023-11-10T21:42:31.770Z,158725.72
2023-11-10T21:44:59.591Z,158700.44
2023-11-10T21:47:32.931Z,158683.09
2023-11-10T21:50:01.073Z,158660.44
2023-11-10T21:52:30.938Z,158648.44
2023-11-10T21:54:59.725Z,158636.50
2023-11-10T21:57:28.441Z,158624.50
2023-11-10T21:59:56.142Z,158597.84
2023-11-10T22:02:24.476Z,158604.50
2023-11-10T22:04:52.150Z,158579.22
2023-11-10T22:07:21.868Z,158587.22
2023-11-10T22:09:49.981Z,158573.88
2023-11-10T22:12:18.422Z,158565.91
2023-11-10T22:14:46.617Z,158565.91
2023-11-10T22:17:14.796Z,158548.56
2023-11-10T22:19:42.414Z,158537.94
2023-11-10T22:22:11.002Z,158544.59
2023-11-10T22:24:38.799Z,158517.94
2023-11-10T22:27:06.601Z,158537.94
2023-11-10T22:29:34.289Z,158543.22
2023-11-10T22:32:01.996Z,158540.59
2023-11-10T22:34:29.956Z,158525.94
2023-11-10T22:37:02.775Z,158531.28
2023-11-10T22:39:31.987Z,158536.63
2023-11-10T22:42:00.043Z,158540.59
2023-11-10T22:44:27.673Z,158549.88
2023-11-10T22:46:55.533Z,158528.56
2023-11-10T22:49:23.734Z,158531.28
2023-11-10T22:51:51.897Z,158523.28
2023-11-10T22:54:19.690Z,158513.94
2023-11-10T22:56:47.814Z,158499.28
2023-11-10T22:59:15.553Z,158508.66
2023-11-10T23:01:43.556Z,158507.28
2023-11-10T23:04:13.024Z,158500.63
2023-11-10T23:06:40.982Z,158491.31
2023-11-10T23:09:11.391Z,158497.97
2023-11-10T23:11:42.682Z,158503.31
2023-11-10T23:14:11.733Z,158511.28
2023-11-10T23:16:41.329Z,158496.66
2023-11-10T23:19:08.926Z,158515.31
2023-11-10T23:21:38.411Z,158521.91
2023-11-10T23:24:06.607Z,158525.94
2023-11-10T23:26:34.338Z,158535.25
2023-11-10T23:29:02.361Z,158541.91
2023-11-10T23:31:31.275Z,158547.25
2023-11-10T23:33:59.221Z,158552.59
2023-11-10T23:36:26.899Z,158531.28
2023-11-10T23:38:54.443Z,158525.94
2023-11-10T23:41:22.935Z,158547.25
2023-11-10T23:43:51.363Z,158544.59
2023-11-10T23:46:20.998Z,158543.22
2023-11-10T23:48:53.053Z,158556.53
2023-11-10T23:51:21.729Z,158552.59
2023-11-10T23:53:51.269Z,158560.56
2023-11-10T23:56:19.328Z,158535.25
2023-11-10T23:58:47.243Z,158539.25
